Time,TemperatureF,DewpointF,PressureIn,WindDirection,WindDirectionDegrees,WindSpeedMPH,WindSpeedGustMPH,Humidity,HourlyPrecipIn,Conditions,Clouds,dailyrainin,SoftwareType,DateUTC
2013-12-18 00:00:00,16.1,10.7,29.33,SSW,206,4.0,4.0,79,0.00,,,0.00,Wunderground v.1.15,2013-12-18 05:00:00,
2013-12-18 00:10:00,15.9,10.5,29.33,NW,318,4.0,5.0,79,0.00,,,0.00,Wunderground v.1.15,2013-12-18 05:10:00,
2013-12-18 00:20:00,16.1,11.0,29.33,NW,317,5.0,5.0,80,0.00,,,0.00,Wunderground v.1.15,2013-12-18 05:20:00,
2013-12-18 00:30:00,16.0,10.9,29.32,WNW,298,5.0,12.0,80,0.00,,,0.00,Wunderground v.1.15,2013-12-18 05:30:00,
2013-12-18 00:40:00,16.0,10.9,29.32,WNW,289,7.0,8.0,80,0.00,,,0.00,Wunderground v.1.15,2013-12-18 05:40:00,
2013-12-18 00:50:00,15.7,10.6,29.32,WNW,287,5.0,5.0,80,0.00,,,0.00,Wunderground v.1.15,2013-12-18 05:50:00,
2013-12-18 01:00:00,15.5,10.1,29.32,WNW,302,5.0,11.0,79,0.00,,,0.00,Wunderground v.1.15,2013-12-18 06:00:00,
2013-12-18 01:10:00,15.4,9.8,29.33,WNW,302,5.0,5.0,78,0.00,,,0.00,Wunderground v.1.15,2013-12-18 06:10:00,
2013-12-18 01:20:00,15.4,10.3,29.32,WNW,297,5.0,7.0,80,0.00,,,0.00,Wunderground v.1.15,2013-12-18 06:20:00,
2013-12-18 01:30:00,15.3,10.2,29.32,NW,306,6.0,6.0,80,0.00,,,0.00,Wunderground v.1.15,2013-12-18 06:30:00,
2013-12-18 01:40:00,15.3,10.2,29.33,NW,321,6.0,7.0,80,0.00,,,0.00,Wunderground v.1.15,2013-12-18 06:40:00,
2013-12-18 01:50:00,15.2,10.1,29.33,NW,304,4.0,6.0,80,0.00,,,0.00,Wunderground v.1.15,2013-12-18 06:50:00,
2013-12-18 02:00:00,15.2,9.9,29.33,NW,315,5.0,10.0,79,0.00,,,0.00,Wunderground v.1.15,2013-12-18 07:00:00,
2013-12-18 02:10:00,15.2,10.1,29.32,NW,317,6.0,6.0,80,0.00,,,0.00,Wunderground v.1.15,2013-12-18 07:10:00,
2013-12-18 02:20:00,15.3,10.8,29.32,NW,314,5.0,7.0,82,0.00,,,0.00,Wunderground v.1.15,2013-12-18 07:20:00,
2013-12-18 02:30:00,15.5,10.7,29.32,WNW,302,5.0,5.0,81,0.00,,,0.00,Wunderground v.1.15,2013-12-18 07:30:00,
2013-12-18 02:40:00,15.6,11.1,29.32,NW,326,4.0,4.0,82,0.00,,,0.00,Wunderground v.1.15,2013-12-18 07:40:00,
2013-12-18 02:50:00,15.9,11.7,29.32,WNW,302,5.0,5.0,83,0.00,,,0.00,Wunderground v.1.15,2013-12-18 07:50:00,
2013-12-18 03:00:00,15.8,11.3,29.32,NW,317,4.0,5.0,82,0.00,,,0.00,Wunderground v.1.15,2013-12-18 08:00:00,
2013-12-18 03:10:00,16.0,12.0,29.33,NW,324,5.0,5.0,84,0.00,,,0.00,Wunderground v.1.15,2013-12-18 08:10:00,
2013-12-18 03:20:00,16.1,12.1,29.33,WNW,295,5.0,10.0,84,0.00,,,0.00,Wunderground v.1.15,2013-12-18 08:20:00,
2013-12-18 03:30:00,16.4,12.7,29.32,NW,314,4.0,4.0,85,0.00,,,0.00,Wunderground v.1.15,2013-12-18 08:30:00,
2013-12-18 03:40:00,16.7,13.0,29.32,WNW,303,5.0,5.0,85,0.00,,,0.00,Wunderground v.1.15,2013-12-18 08:40:00,
2013-12-18 03:50:00,16.6,12.3,29.32,WSW,241,2.0,2.0,83,0.00,,,0.00,Wunderground v.1.15,2013-12-18 08:50:00,
2013-12-18 04:00:00,15.8,11.3,29.32,South,187,2.0,2.0,82,0.00,,,0.00,Wunderground v.1.15,2013-12-18 09:00:00,
2013-12-18 04:10:00,14.9,10.4,29.31,South,179,1.0,1.0,82,0.00,,,0.00,Wunderground v.1.15,2013-12-18 09:10:00,
2013-12-18 04:20:00,14.4,10.2,29.31,South,184,1.0,2.0,83,0.00,,,0.00,Wunderground v.1.15,2013-12-18 09:20:00,
2013-12-18 04:30:00,13.7,9.2,29.31,South,188,2.0,2.0,82,0.00,,,0.00,Wunderground v.1.15,2013-12-18 09:30:00,
2013-12-18 04:40:00,13.2,8.7,29.31,SW,219,2.0,2.0,82,0.00,,,0.00,Wunderground v.1.15,2013-12-18 09:40:00,
2013-12-18 04:50:00,12.8,8.6,29.31,SSW,192,1.0,1.0,83,0.00,,,0.00,Wunderground v.1.15,2013-12-18 09:50:00,
2013-12-18 05:00:00,12.6,8.1,29.32,SSW,192,1.0,1.0,82,0.00,,,0.00,Wunderground v.1.15,2013-12-18 10:00:00,
2013-12-18 05:10:00,12.3,7.9,29.31,South,190,1.0,2.0,82,0.00,,,0.00,Wunderground v.1.15,2013-12-18 10:10:00,
2013-12-18 05:20:00,12.1,7.4,29.31,South,173,1.0,2.0,81,0.00,,,0.00,Wunderground v.1.15,2013-12-18 10:20:00,
2013-12-18 05:30:00,11.9,7.2,29.31,South,188,3.0,4.0,81,0.00,,,0.00,Wunderground v.1.15,2013-12-18 10:30:00,
2013-12-18 05:40:00,11.8,6.8,29.31,South,189,2.0,10.0,80,0.00,,,0.00,Wunderground v.1.15,2013-12-18 10:40:00,
2013-12-18 05:50:00,11.6,6.6,29.32,SSW,200,3.0,6.0,80,0.00,,,0.00,Wunderground v.1.15,2013-12-18 10:50:00,
2013-12-18 06:00:00,11.5,6.5,29.32,SSW,196,3.0,3.0,80,0.00,,,0.00,Wunderground v.1.15,2013-12-18 11:00:00,
2013-12-18 06:10:00,11.3,6.3,29.32,South,178,3.0,3.0,80,0.00,,,0.00,Wunderground v.1.15,2013-12-18 11:10:00,
2013-12-18 06:20:00,11.3,6.3,29.31,SSW,196,3.0,3.0,80,0.00,,,0.00,Wunderground v.1.15,2013-12-18 11:20:00,
2013-12-18 06:30:00,11.2,6.0,29.31,SSW,198,3.0,4.0,79,0.00,,,0.00,Wunderground v.1.15,2013-12-18 11:30:00,
2013-12-18 06:40:00,10.9,5.7,29.31,South,173,3.0,3.0,79,0.00,,,0.00,Wunderground v.1.15,2013-12-18 11:40:00,
2013-12-18 06:50:00,10.7,5.5,29.30,South,171,3.0,3.0,79,0.00,,,0.00,Wunderground v.1.15,2013-12-18 11:50:00,
2013-12-18 07:00:00,10.5,5.3,29.30,South,186,4.0,5.0,79,0.00,,,0.00,Wunderground v.1.15,2013-12-18 12:00:00,
2013-12-18 07:10:00,10.4,4.9,29.30,South,184,4.0,6.0,78,0.00,,,0.00,Wunderground v.1.15,2013-12-18 12:10:00,
2013-12-18 07:20:00,9.9,4.4,29.30,South,169,4.0,4.0,78,0.00,,,0.00,Wunderground v.1.15,2013-12-18 12:20:00,
2013-12-18 07:30:00,9.0,3.3,29.30,South,175,2.0,2.0,77,0.00,,,0.00,Wunderground v.1.15,2013-12-18 12:30:00,
2013-12-18 07:40:00,8.0,2.6,29.30,South,169,3.0,3.0,78,0.00,,,0.00,Wunderground v.1.15,2013-12-18 12:40:00,
2013-12-18 07:50:00,7.2,2.1,29.30,SSW,200,3.0,3.0,79,0.00,,,0.00,Wunderground v.1.15,2013-12-18 12:50:00,
2013-12-18 08:00:00,6.8,1.7,29.30,SSE,165,3.0,3.0,79,0.00,,,0.00,Wunderground v.1.15,2013-12-18 13:00:00,
2013-12-18 08:10:00,6.4,1.5,29.29,SSE,166,1.0,3.0,80,0.00,,,0.00,Wunderground v.1.15,2013-12-18 13:10:00,
2013-12-18 08:20:00,6.1,1.3,29.28,South,171,2.0,2.0,80,0.00,,,0.00,Wunderground v.1.15,2013-12-18 13:20:00,
2013-12-18 08:30:00,5.7,0.9,29.28,SSE,167,1.0,2.0,80,0.00,,,0.00,Wunderground v.1.15,2013-12-18 13:30:00,
2013-12-18 08:40:00,5.4,0.8,29.28,South,178,2.0,2.0,81,0.00,,,0.00,Wunderground v.1.15,2013-12-18 13:40:00,
2013-12-18 08:50:00,5.1,0.5,29.29,SSW,196,2.0,2.0,81,0.00,,,0.00,Wunderground v.1.15,2013-12-18 13:50:00,
2013-12-18 09:00:00,5.0,0.7,29.28,South,181,2.0,2.0,82,0.00,,,0.00,Wunderground v.1.15,2013-12-18 14:00:00,
2013-12-18 09:10:00,5.3,1.0,29.28,South,180,2.0,2.0,82,0.00,,,0.00,Wunderground v.1.15,2013-12-18 14:10:00,
2013-12-18 09:20:00,5.6,1.3,29.27,South,169,2.0,2.0,82,0.00,,,0.00,Wunderground v.1.15,2013-12-18 14:20:00,
2013-12-18 09:30:00,6.0,1.4,29.27,SSE,153,2.0,4.0,81,0.00,,,0.00,Wunderground v.1.15,2013-12-18 14:30:00,
2013-12-18 09:40:00,6.3,1.7,29.27,South,180,3.0,6.0,81,0.00,,,0.00,Wunderground v.1.15,2013-12-18 14:40:00,
2013-12-18 09:50:00,6.5,1.6,29.26,South,182,4.0,6.0,80,0.00,,,0.00,Wunderground v.1.15,2013-12-18 14:50:00,
2013-12-18 10:00:00,6.7,1.6,29.25,South,173,4.0,4.0,79,0.00,,,0.00,Wunderground v.1.15,2013-12-18 15:00:00,
2013-12-18 10:10:00,6.8,1.7,29.24,SE,145,5.0,10.0,79,0.00,,,0.00,Wunderground v.1.15,2013-12-18 15:10:00,
2013-12-18 10:20:00,6.8,1.1,29.23,South,180,5.0,5.0,77,0.00,,,0.00,Wunderground v.1.15,2013-12-18 15:20:00,
2013-12-18 10:30:00,7.0,1.3,29.24,SSE,153,4.0,4.0,77,0.00,,,0.00,Wunderground v.1.15,2013-12-18 15:30:00,
2013-12-18 10:40:00,7.2,1.2,29.24,SSE,166,2.0,7.0,76,0.00,,,0.00,Wunderground v.1.15,2013-12-18 15:40:00,
2013-12-18 10:50:00,7.3,1.3,29.23,South,181,4.0,4.0,76,0.00,,,0.00,Wunderground v.1.15,2013-12-18 15:50:00,
2013-12-18 11:00:00,7.7,1.4,29.23,SSW,200,4.0,4.0,75,0.00,,,0.00,Wunderground v.1.15,2013-12-18 16:00:00,
2013-12-18 11:10:00,8.0,1.7,29.22,SSE,163,3.0,3.0,75,0.00,,,0.00,Wunderground v.1.15,2013-12-18 16:10:00,
2013-12-18 11:20:00,8.3,2.0,29.22,SSE,167,2.0,4.0,75,0.00,,,0.00,Wunderground v.1.15,2013-12-18 16:20:00,
2013-12-18 11:30:00,8.7,2.4,29.21,South,169,2.0,2.0,75,0.00,,,0.00,Wunderground v.1.15,2013-12-18 16:30:00,
2013-12-18 11:40:00,9.1,2.8,29.20,SSE,150,3.0,3.0,75,0.00,,,0.00,Wunderground v.1.15,2013-12-18 16:40:00,
2013-12-18 11:50:00,9.4,2.8,29.20,SSE,163,3.0,3.0,74,0.00,,,0.00,Wunderground v.1.15,2013-12-18 16:50:00,
2013-12-18 12:00:00,9.8,3.5,29.20,SSE,166,3.0,3.0,75,0.00,,,0.00,Wunderground v.1.15,2013-12-18 17:00:00,
2013-12-18 12:10:00,10.1,3.8,29.20,SSE,148,2.0,2.0,75,0.00,,,0.00,Wunderground v.1.15,2013-12-18 17:10:00,
2013-12-18 12:20:00,10.6,3.9,29.19,South,182,3.0,3.0,74,0.00,,,0.00,Wunderground v.1.15,2013-12-18 17:20:00,
2013-12-18 12:30:00,11.1,4.4,29.19,SSE,155,2.0,2.0,74,0.00,,,0.00,Wunderground v.1.15,2013-12-18 17:30:00,
2013-12-18 12:40:00,11.6,4.9,29.17,South,178,2.0,2.0,74,0.00,,,0.00,Wunderground v.1.15,2013-12-18 17:40:00,
2013-12-18 12:50:00,12.0,5.6,29.16,South,171,1.0,4.0,75,0.00,,,0.00,Wunderground v.1.15,2013-12-18 17:50:00,
2013-12-18 13:00:00,12.5,5.5,29.15,SSE,153,1.0,5.0,73,0.00,,,0.00,Wunderground v.1.15,2013-12-18 18:00:00,
2013-12-18 13:10:00,12.8,5.8,29.14,SE,143,1.0,1.0,73,0.00,,,0.00,Wunderground v.1.15,2013-12-18 18:10:00,
2013-12-18 13:20:00,13.2,5.9,29.14,SE,138,1.0,1.0,72,0.00,,,0.00,Wunderground v.1.15,2013-12-18 18:20:00,
2013-12-18 13:30:00,13.7,6.3,29.12,SE,139,0.0,0.0,72,0.00,,,0.00,Wunderground v.1.15,2013-12-18 18:30:00,
2013-12-18 13:40:00,14.5,7.1,29.11,SE,139,0.0,2.0,72,0.00,,,0.00,Wunderground v.1.15,2013-12-18 18:40:00,
2013-12-18 13:50:00,16.3,9.2,29.09,SE,144,1.0,1.0,73,0.00,,,0.00,Wunderground v.1.15,2013-12-18 18:50:00,
2013-12-18 14:00:00,18.4,9.9,29.08,SE,130,2.0,5.0,69,0.00,,,0.00,Wunderground v.1.15,2013-12-18 19:00:00,
2013-12-18 14:10:00,19.4,9.5,29.07,ESE,103,3.0,3.0,65,0.00,,,0.00,Wunderground v.1.15,2013-12-18 19:10:00,
2013-12-18 14:20:00,19.7,9.1,29.06,SSE,154,2.0,4.0,63,0.00,,,0.00,Wunderground v.1.15,2013-12-18 19:20:00,
2013-12-18 14:30:00,19.7,9.1,29.06,South,178,2.0,5.0,63,0.00,,,0.00,Wunderground v.1.15,2013-12-18 19:30:00,
2013-12-18 14:40:00,19.9,9.0,29.06,East,90,2.0,2.0,62,0.00,,,0.00,Wunderground v.1.15,2013-12-18 19:40:00,
2013-12-18 14:50:00,20.4,9.4,29.04,SSE,153,1.0,1.0,62,0.00,,,0.00,Wunderground v.1.15,2013-12-18 19:50:00,
2013-12-18 15:00:00,21.0,9.6,29.05,SSE,152,2.0,2.0,61,0.00,,,0.00,Wunderground v.1.15,2013-12-18 20:00:00,
2013-12-18 15:10:00,21.5,9.7,29.03,SSW,206,1.0,1.0,60,0.00,,,0.00,Wunderground v.1.15,2013-12-18 20:10:00,
2013-12-18 15:20:00,21.7,9.9,29.02,South,169,2.0,2.0,60,0.00,,,0.00,Wunderground v.1.15,2013-12-18 20:20:00,
2013-12-18 15:30:00,21.7,9.9,29.02,SSE,158,3.0,3.0,60,0.00,,,0.00,Wunderground v.1.15,2013-12-18 20:30:00,
2013-12-18 15:40:00,21.6,9.8,29.02,SSE,149,1.0,1.0,60,0.00,,,0.00,Wunderground v.1.15,2013-12-18 20:40:00,
2013-12-18 15:50:00,21.6,10.6,29.02,SSE,148,1.0,3.0,62,0.00,,,0.00,Wunderground v.1.15,2013-12-18 20:50:00,
2013-12-18 16:00:00,21.5,10.5,29.02,SSE,149,1.0,1.0,62,0.00,,,0.00,Wunderground v.1.15,2013-12-18 21:00:00,
2013-12-18 16:10:00,21.3,11.0,29.01,SSE,153,1.0,1.0,64,0.00,,,0.00,Wunderground v.1.15,2013-12-18 21:10:00,
2013-12-18 16:20:00,21.2,10.9,29.02,SSE,152,0.0,0.0,64,0.00,,,0.00,Wunderground v.1.15,2013-12-18 21:20:00,
2013-12-18 16:30:00,21.0,11.1,29.02,SSE,151,0.0,0.0,65,0.00,,,0.00,Wunderground v.1.15,2013-12-18 21:30:00,
2013-12-18 16:40:00,20.8,10.9,29.02,SSE,151,0.0,0.0,65,0.00,,,0.00,Wunderground v.1.15,2013-12-18 21:40:00,
2013-12-18 16:50:00,20.6,11.4,29.02,SSE,151,0.0,0.0,67,0.00,,,0.00,Wunderground v.1.15,2013-12-18 21:50:00,
2013-12-18 17:20:00,18.6,10.8,29.01,SSE,150,0.0,0.0,71,0.00,,,0.00,Wunderground v.1.15,2013-12-18 22:20:00,
2013-12-18 17:30:00,17.7,10.5,29.01,SSE,151,0.0,0.0,73,0.00,,,0.00,Wunderground v.1.15,2013-12-18 22:30:00,
2013-12-18 17:40:00,16.6,9.8,29.01,SSE,151,0.0,0.0,74,0.00,,,0.00,Wunderground v.1.15,2013-12-18 22:40:00,
2013-12-18 17:50:00,15.9,9.7,29.01,SSE,151,0.0,1.0,76,0.00,,,0.00,Wunderground v.1.15,2013-12-18 22:50:00,
2013-12-18 18:10:00,14.5,8.9,29.00,SSE,151,0.0,0.0,78,0.00,,,0.00,Wunderground v.1.15,2013-12-18 23:10:00,
2013-12-18 18:20:00,14.1,9.1,29.00,SSE,150,0.0,0.0,80,0.00,,,0.00,Wunderground v.1.15,2013-12-18 23:20:00,
2013-12-18 18:30:00,13.7,8.7,29.00,SSE,151,0.0,0.0,80,0.00,,,0.00,Wunderground v.1.15,2013-12-18 23:30:00,
2013-12-18 18:40:00,13.4,8.4,29.00,SSE,151,0.0,1.0,80,0.00,,,0.00,Wunderground v.1.15,2013-12-18 23:40:00,
2013-12-18 18:50:00,13.0,8.3,29.01,SSE,151,0.0,0.0,81,0.00,,,0.00,Wunderground v.1.15,2013-12-18 23:50:00,
2013-12-18 19:00:00,12.8,8.6,29.01,SSE,150,0.0,1.0,83,0.00,,,0.00,Wunderground v.1.15,2013-12-19 00:00:00,
2013-12-18 19:10:00,12.6,8.4,29.01,SSE,151,0.0,0.0,83,0.00,,,0.00,Wunderground v.1.15,2013-12-19 00:10:00,
2013-12-18 19:20:00,12.3,8.4,29.00,SSE,151,0.0,0.0,84,0.00,,,0.00,Wunderground v.1.15,2013-12-19 00:20:00,
2013-12-18 19:30:00,11.8,7.9,29.00,SSE,150,0.0,1.0,84,0.00,,,0.00,Wunderground v.1.15,2013-12-19 00:30:00,
2013-12-18 19:40:00,11.4,7.5,29.00,SSE,150,0.0,1.0,84,0.00,,,0.00,Wunderground v.1.15,2013-12-19 00:40:00,
2013-12-18 19:50:00,10.9,7.0,29.01,SSE,150,0.0,0.0,84,0.00,,,0.00,Wunderground v.1.15,2013-12-19 00:50:00,
2013-12-18 20:00:00,10.4,6.5,29.01,SSE,151,1.0,1.0,84,0.00,,,0.00,Wunderground v.1.15,2013-12-19 01:00:00,
2013-12-18 20:10:00,10.1,6.5,29.01,SSE,151,1.0,1.0,85,0.00,,,0.00,Wunderground v.1.15,2013-12-19 01:10:00,
2013-12-18 20:20:00,9.9,6.3,29.02,SSE,151,2.0,2.0,85,0.00,,,0.00,Wunderground v.1.15,2013-12-19 01:20:00,
2013-12-18 20:30:00,9.9,6.6,29.02,SSE,152,2.0,2.0,86,0.00,,,0.00,Wunderground v.1.15,2013-12-19 01:30:00,
2013-12-18 20:40:00,10.5,7.6,29.02,SSE,153,2.0,2.0,88,0.00,,,0.00,Wunderground v.1.15,2013-12-19 01:40:00,
2013-12-18 20:50:00,11.2,8.3,29.02,SSE,154,2.0,2.0,88,0.00,,,0.00,Wunderground v.1.15,2013-12-19 01:50:00,
2013-12-18 21:00:00,11.4,8.3,29.02,SSE,155,1.0,2.0,87,0.00,,,0.00,Wunderground v.1.15,2013-12-19 02:00:00,
2013-12-18 21:10:00,11.5,8.4,29.02,SSE,155,1.0,1.0,87,0.00,,,0.00,Wunderground v.1.15,2013-12-19 02:10:00,
2013-12-18 21:20:00,11.1,7.7,29.01,SSE,155,1.0,1.0,86,0.00,,,0.00,Wunderground v.1.15,2013-12-19 02:20:00,
2013-12-18 21:30:00,10.8,7.4,29.01,SSE,155,1.0,1.0,86,0.00,,,0.00,Wunderground v.1.15,2013-12-19 02:30:00,
2013-12-18 21:40:00,10.4,7.0,29.01,SSE,155,1.0,1.0,86,0.00,,,0.00,Wunderground v.1.15,2013-12-19 02:40:00,
2013-12-18 21:50:00,10.1,6.7,29.01,SSE,155,1.0,1.0,86,0.00,,,0.00,Wunderground v.1.15,2013-12-19 02:50:00,
2013-12-18 22:00:00,10.0,6.9,29.01,SSE,155,1.0,2.0,87,0.00,,,0.00,Wunderground v.1.15,2013-12-19 03:00:00,
2013-12-18 22:10:00,10.1,7.0,29.01,SSE,155,1.0,2.0,87,0.00,,,0.00,Wunderground v.1.15,2013-12-19 03:10:00,
2013-12-18 22:20:00,10.5,7.6,29.02,SSE,155,2.0,2.0,88,0.00,,,0.00,Wunderground v.1.15,2013-12-19 03:20:00,
2013-12-18 22:30:00,11.1,8.5,29.02,SSE,155,2.0,3.0,89,0.00,,,0.00,Wunderground v.1.15,2013-12-19 03:30:00,
2013-12-18 22:40:00,11.3,8.7,29.02,SSE,155,2.0,2.0,89,0.00,,,0.00,Wunderground v.1.15,2013-12-19 03:40:00,
2013-12-18 22:50:00,11.2,8.3,29.02,SSE,155,2.0,2.0,88,0.00,,,0.00,Wunderground v.1.15,2013-12-19 03:50:00,
2013-12-18 23:00:00,10.9,8.0,29.02,SSE,155,1.0,1.0,88,0.00,,,0.00,Wunderground v.1.15,2013-12-19 04:00:00,
2013-12-18 23:10:00,10.6,7.7,29.02,SSE,155,1.0,2.0,88,0.00,,,0.00,Wunderground v.1.15,2013-12-19 04:10:00,
2013-12-18 23:20:00,10.6,7.7,29.03,SSE,155,1.0,2.0,88,0.00,,,0.00,Wunderground v.1.15,2013-12-19 04:20:00,
2013-12-18 23:30:00,10.4,7.8,29.03,SSE,155,1.0,2.0,89,0.00,,,0.00,Wunderground v.1.15,2013-12-19 04:30:00,
2013-12-18 23:40:00,10.1,7.3,29.04,SSE,155,2.0,2.0,88,0.00,,,0.00,Wunderground v.1.15,2013-12-19 04:40:00,
2013-12-18 23:50:00,9.9,7.3,29.05,SSE,155,2.0,2.0,89,0.00,,,0.00,Wunderground v.1.15,2013-12-19 04:50:00,